Time;durP1;ratioP1;P1;durP2;ratioP2;P2;SDS_P1;SDS_P2;PMS_P1;PMS_P2;Temp;Humidity;BMP_temperature;BMP_pressure;BME280_temperature;BME280_humidity;BME280_pressure;Samples;Min_cycle;Max_cycle;Signal;HPM_P1;HPM_P2
2022/10/17 00:00:50;;;;;;;4.60;2.83;;;16.80;74.50;;;19.36;54.49;101803.66;5034956;28;20210;-56
2022/10/17 00:03:17;;;;;;;3.70;2.40;;;16.80;74.70;;;19.34;54.74;101816.38;5034943;28;20273;-54
2022/10/17 00:05:47;;;;;;;4.43;2.63;;;16.80;74.80;;;19.38;54.72;101814.13;5035250;28;20717;-56
2022/10/17 00:08:18;;;;;;;6.27;3.00;;;16.70;74.80;;;19.40;54.38;101828.91;5035082;28;20269;-56
2022/10/17 00:10:54;;;;;;;3.87;2.73;;;16.80;75.00;;;19.44;54.31;101826.66;5034503;28;20209;-56
2022/10/17 00:13:22;;;;;;;4.37;2.60;;;16.80;75.10;;;19.49;54.31;101821.53;5017778;28;20203;-53
2022/10/17 00:15:51;;;;;;;4.50;2.50;;;16.80;75.10;;;19.49;54.36;101816.19;5015003;28;20195;-52
2022/10/17 00:18:19;;;;;;;5.97;2.43;;;16.80;75.00;;;19.46;54.61;101811.25;5032868;28;20202;-55
2022/10/17 00:20:46;;;;;;;3.93;2.47;;;16.80;75.00;;;19.47;54.59;101818.22;5034409;28;20705;-56
2022/10/17 00:23:13;;;;;;;4.83;2.50;;;16.80;74.90;;;19.50;54.62;101815.16;5034722;28;20287;-56
2022/10/17 00:25:41;;;;;;;5.70;2.70;;;16.80;74.90;;;19.54;54.31;101811.84;5034827;28;20252;-56
2022/10/17 00:28:09;;;;;;;3.93;2.20;;;16.80;74.90;;;19.61;54.23;101814.53;5027473;28;20196;-57
2022/10/17 00:30:36;;;;;;;4.33;2.00;;;16.90;75.90;;;19.69;53.91;101821.50;5015175;28;20218;-56
2022/10/17 00:33:06;;;;;;;2.47;2.27;;;16.90;75.10;;;19.75;53.92;101820.69;5033856;28;20269;-55
2022/10/17 00:35:33;;;;;;;4.60;2.57;;;16.90;75.10;;;19.79;53.95;101822.72;5034517;28;20233;-55
2022/10/17 00:38:00;;;;;;;4.10;2.30;;;16.90;75.00;;;19.84;53.68;101820.25;5034786;28;20199;-56
2022/10/17 00:40:27;;;;;;;4.30;2.30;;;16.90;75.00;;;19.86;53.33;101817.38;5033859;28;20614;-54
2022/10/17 00:42:55;;;;;;;2.70;1.87;;;17.00;74.90;;;19.83;53.78;101813.25;5034462;28;20222;-54
2022/10/17 00:45:26;;;;;;;2.97;1.97;;;17.00;74.70;;;19.83;53.89;101823.94;5018708;28;20201;-53
2022/10/17 00:47:59;;;;;;;2.50;2.07;;;17.00;74.70;;;19.83;53.46;101805.22;5016594;28;20203;-55
2022/10/17 00:50:28;;;;;;;3.47;2.13;;;17.00;74.80;;;19.84;53.95;101798.88;5020281;28;20674;-57
2022/10/17 00:53:01;;;;;;;2.30;1.70;;;17.00;74.70;;;19.84;53.73;101804.22;5034646;28;20276;-56
2022/10/17 00:55:34;;;;;;;4.07;2.33;;;17.00;74.60;;;19.84;53.71;101803.41;5034459;28;20190;-54
2022/10/17 00:58:04;;;;;;;1.93;1.60;;;17.10;74.60;;;19.82;53.91;101800.94;5034894;28;20313;-54
2022/10/17 01:00:31;;;;;;;3.23;1.80;;;17.10;74.60;;;19.84;53.38;101809.56;5028961;28;20201;-53
2022/10/17 01:02:59;;;;;;;2.23;1.83;;;17.00;75.30;;;19.86;53.45;101807.50;5028385;28;20622;-57
2022/10/17 01:05:28;;;;;;;2.70;1.97;;;17.10;74.70;;;19.88;53.68;101802.75;5016968;28;20199;-54
2022/10/17 01:07:56;;;;;;;4.43;2.13;;;17.10;74.70;;;19.91;53.79;101814.88;5029417;28;20226;-53
2022/10/17 01:10:33;;;;;;;2.93;2.20;;;17.10;74.90;;;19.90;53.41;101808.72;5014282;28;20191;-54
2022/10/17 01:13:13;;;;;;;5.20;2.47;;;17.10;75.00;;;19.91;53.99;101815.72;5019131;28;20210;-57
2022/10/17 01:15:58;;;;;;;3.47;2.37;;;17.10;75.00;;;19.95;53.97;101824.13;5033903;28;20191;-56
2022/10/17 01:18:46;;;;;;;4.50;2.10;;;17.10;75.00;;;19.96;53.83;101829.28;5013937;28;20627;-57
2022/10/17 01:21:46;;;;;;;2.23;2.03;;;17.10;74.90;;;19.94;53.59;101822.50;5013779;28;20249;-54
2022/10/17 01:24:46;;;;;;;2.67;2.13;;;17.20;74.90;;;19.93;53.38;101835.03;5015199;28;20219;-56
2022/10/17 01:28:00;;;;;;;5.47;2.30;;;17.20;74.90;;;19.92;53.57;101833.38;5013904;28;20187;-56
2022/10/17 01:31:14;;;;;;;2.47;2.07;;;17.10;74.80;;;19.92;53.54;101828.03;5013474;28;20249;-56
2022/10/17 01:34:00;;;;;;;2.57;2.07;;;17.10;74.90;;;19.97;53.94;101820.22;5010898;28;20277;-56
2022/10/17 01:36:43;;;;;;;3.20;2.33;;;17.10;74.90;;;19.96;53.33;101818.59;5028021;28;20721;-56
2022/10/17 01:39:19;;;;;;;2.53;1.87;;;17.10;74.90;;;19.95;53.77;101808.09;5033208;28;20190;-56
2022/10/17 01:41:57;;;;;;;3.87;1.90;;;17.10;74.80;;;19.91;53.79;101807.69;5019521;28;20191;-56
2022/10/17 01:44:35;;;;;;;5.10;2.20;;;17.10;74.90;;;19.88;53.78;101796.59;5014014;28;20199;-55
2022/10/17 01:47:08;;;;;;;4.03;2.47;;;17.10;74.90;;;19.84;53.66;101793.53;5013621;28;20195;-56
2022/10/17 01:49:40;;;;;;;3.33;2.03;;;17.10;74.90;;;19.79;54.04;101779.97;5014728;28;20536;-57
2022/10/17 01:52:14;;;;;;;6.20;2.00;;;17.00;74.90;;;19.77;54.16;101786.56;5032684;28;20191;-56
2022/10/17 01:54:47;;;;;;;3.10;1.90;;;17.00;75.00;;;19.72;54.24;101781.84;5033290;28;20186;-55
2022/10/17 01:57:23;;;;;;;5.03;2.33;;;17.00;75.20;;;19.69;54.54;101770.72;5033197;28;20221;-54
2022/10/17 01:59:54;;;;;;;3.20;2.27;;;16.90;75.40;;;19.66;54.70;101769.28;5016849;28;20195;-56
2022/10/17 02:02:25;;;;;;;5.87;2.63;;;16.90;75.60;;;19.63;54.73;101769.75;5017325;28;20280;-57
2022/10/17 02:04:56;;;;;;;4.23;2.57;;;16.90;76.10;;;19.53;55.62;101769.34;5014984;28;20615;-56
2022/10/17 02:07:23;;;;;;;3.70;2.40;;;16.90;76.60;;;19.48;55.46;101761.94;5033329;28;20227;-56
2022/10/17 02:09:51;;;;;;;3.40;2.20;;;16.90;76.60;;;19.46;55.53;101768.53;5033298;28;20260;-54
2022/10/17 02:12:44;;;;;;;2.37;2.20;;;16.90;76.80;;;19.40;55.88;101755.97;5032016;28;20273;-54
2022/10/17 02:16:07;;;;;;;3.43;2.43;;;16.80;77.10;;;19.32;56.28;101756.19;5037540;28;20195;-54
2022/10/17 02:19:00;;;;;;;3.73;2.60;;;16.80;77.40;;;19.30;56.71;101748.34;5015501;28;20270;-54
2022/10/17 02:21:38;;;;;;;3.07;2.57;;;16.80;77.80;;;19.28;56.61;101744.28;5018534;28;20219;-54
2022/10/17 02:24:16;;;;;;;5.27;2.70;;;16.70;78.00;;;19.28;57.01;101738.94;5017085;28;20226;-55
2022/10/17 02:26:52;;;;;;;4.40;2.80;;;16.70;78.40;;;19.30;56.91;101731.53;5017389;28;20194;-54
2022/10/17 02:29:27;;;;;;;3.33;2.53;;;16.70;78.20;;;19.30;56.67;101736.88;5017482;28;20225;-55
2022/10/17 02:32:04;;;;;;;2.90;2.10;;;16.70;78.30;;;19.29;56.88;101735.22;5017043;28;20714;-53
2022/10/17 02:34:40;;;;;;;3.60;2.20;;;16.70;78.20;;;19.28;56.58;101738.94;5018407;28;20191;-54
2022/10/17 02:37:11;;;;;;;3.53;2.30;;;16.70;78.10;;;19.30;56.81;101734.22;5036485;28;20190;-56
2022/10/17 02:39:41;;;;;;;3.00;2.20;;;16.70;78.10;;;19.29;56.72;101727.22;5030156;28;20195;-55
2022/10/17 02:42:12;;;;;;;2.67;2.47;;;16.70;78.20;;;19.30;56.52;101720.88;5036505;28;20221;-54
2022/10/17 02:44:44;;;;;;;2.63;2.13;;;16.60;78.10;;;19.32;56.81;101718.81;5036487;28;20701;-55
2022/10/17 02:47:20;;;;;;;5.70;2.67;;;16.60;78.20;;;19.30;56.48;101720.88;5036492;28;20213;-54
2022/10/17 02:49:54;;;;;;;2.30;2.10;;;16.60;78.20;;;19.32;56.45;101718.81;5036880;28;20198;-54
2022/10/17 02:52:32;;;;;;;4.10;2.20;;;16.60;78.20;;;19.31;56.46;101722.50;5024245;28;20215;-53
2022/10/17 02:55:10;;;;;;;5.63;2.13;;;16.60;78.30;;;19.31;56.63;101727.81;5018078;28;20195;-56
2022/10/17 02:57:43;;;;;;;3.30;2.33;;;16.60;78.40;;;19.33;56.47;101726.59;5016661;28;20265;-55
2022/10/17 03:00:14;;;;;;;2.67;2.47;;;16.60;78.50;;;19.29;56.42;101720.03;5033374;28;20218;-56
2022/10/17 03:02:45;;;;;;;3.50;2.30;;;16.60;78.50;;;19.28;56.83;101713.03;5035439;28;20634;-56
2022/10/17 03:05:20;;;;;;;2.30;2.10;;;16.60;78.50;;;19.25;56.53;101710.81;5036067;28;20582;-55
2022/10/17 03:07:48;;;;;;;3.40;2.47;;;16.60;78.70;;;19.27;56.56;101700.75;5035942;28;20195;-54
2022/10/17 03:10:17;;;;;;;3.40;3.00;;;16.50;78.70;;;19.25;56.74;101701.97;5035352;28;20221;-56
2022/10/17 03:12:44;;;;;;;2.93;2.73;;;16.50;78.80;;;19.24;56.91;101716.34;5032859;28;20230;-56
2022/10/17 03:15:12;;;;;;;6.27;3.00;;;16.50;78.90;;;19.19;57.12;101708.94;5036207;28;20191;-55
2022/10/17 03:17:40;;;;;;;3.70;3.30;;;16.50;79.30;;;19.14;57.42;101707.91;5036368;28;20344;-54
2022/10/17 03:20:08;;;;;;;3.40;3.10;;;16.50;79.50;;;19.09;57.84;101707.75;5035682;28;20197;-56
2022/10/17 03:22:37;;;;;;;2.97;2.77;;;16.50;79.80;;;19.02;57.85;101706.94;5035148;28;20641;-55
2022/10/17 03:25:05;;;;;;;3.27;2.97;;;16.40;79.90;;;18.98;58.25;101706.50;5035500;28;20195;-53
2022/10/17 03:27:32;;;;;;;3.37;3.17;;;16.40;80.10;;;18.91;58.81;101709.19;5026143;28;20199;-54
2022/10/17 03:29:59;;;;;;;5.50;3.37;;;16.40;80.70;;;18.82;59.39;101697.06;5016180;28;20253;-53
2022/10/17 03:32:26;;;;;;;4.60;3.23;;;16.30;81.20;;;18.78;59.61;101698.50;5014916;28;20219;-54
2022/10/17 03:34:54;;;;;;;3.80;3.50;;;16.30;82.20;;;18.71;59.76;101697.66;5017165;28;20194;-53
2022/10/17 03:37:21;;;;;;;3.70;3.40;;;16.20;81.70;;;18.71;59.72;101700.34;5035908;28;20195;-54
2022/10/17 03:39:50;;;;;;;4.90;3.17;;;16.20;81.70;;;18.70;60.08;101692.53;5035572;28;20199;-54
2022/10/17 03:42:17;;;;;;;4.80;3.70;;;16.20;82.20;;;18.67;60.31;101696.44;5035149;28;20698;-54
2022/10/17 03:44:44;;;;;;;3.17;2.97;;;16.20;82.90;;;18.67;60.38;101707.09;5026862;28;20214;-54
2022/10/17 03:47:12;;;;;;;5.47;3.33;;;16.10;82.60;;;18.65;60.33;101711.81;5026382;28;20199;-53
2022/10/17 03:49:40;;;;;;;4.80;3.37;;;16.10;82.90;;;18.66;60.57;101707.31;5017389;28;20250;-54
2022/10/17 03:52:11;;;;;;;3.60;3.30;;;16.10;83.70;;;18.64;60.67;101712.84;5036102;28;20217;-54
2022/10/17 03:54:38;;;;;;;5.63;3.83;;;16.10;83.40;;;18.64;60.87;101714.69;5035718;28;20194;-55
2022/10/17 03:57:07;;;;;;;7.33;3.47;;;16.10;83.20;;;18.59;60.93;101712.63;5016267;28;20676;-56
2022/10/17 03:59:34;;;;;;;3.90;3.60;;;16.10;83.80;;;18.54;61.20;101715.06;5018556;28;20260;-53
2022/10/17 04:02:01;;;;;;;4.07;3.67;;;16.10;83.80;;;18.55;61.38;101719.41;5030040;28;20210;-56
2022/10/17 04:04:29;;;;;;;4.57;3.57;;;16.10;84.00;;;18.50;61.34;101715.69;5034694;28;20667;-54
2022/10/17 04:06:56;;;;;;;4.10;3.50;;;16.00;84.30;;;18.51;61.48;101714.66;5035160;28;20252;-55
2022/10/17 04:09:23;;;;;;;4.17;3.67;;;16.00;84.20;;;18.51;61.43;101723.50;5034655;28;20187;-56
2022/10/17 04:11:50;;;;;;;4.00;3.20;;;16.00;84.40;;;18.49;61.54;101717.56;5035069;28;20199;-55
2022/10/17 04:14:19;;;;;;;4.10;3.70;;;16.00;84.50;;;18.50;61.38;101708.50;5035028;28;20190;-54
2022/10/17 04:16:46;;;;;;;5.17;3.63;;;16.00;84.60;;;18.52;61.40;101701.13;5033367;28;20207;-54
2022/10/17 04:19:14;;;;;;;5.30;3.83;;;16.00;84.60;;;18.53;61.52;101710.78;5033872;28;20290;-55
2022/10/17 04:21:41;;;;;;;4.23;3.83;;;16.00;84.80;;;18.52;61.74;101701.13;5015143;28;20199;-54
2022/10/17 04:24:11;;;;;;;4.73;3.90;;;16.00;84.90;;;18.52;61.52;101695.78;5014951;28;20571;-55
2022/10/17 04:26:38;;;;;;;4.23;3.83;;;16.00;84.90;;;18.51;61.68;101701.34;5014840;28;20271;-57
2022/10/17 04:29:05;;;;;;;3.93;3.60;;;15.90;85.10;;;18.48;61.85;101705.22;5014555;28;20699;-54
2022/10/17 04:31:34;;;;;;;4.40;3.60;;;16.00;85.10;;;18.45;62.41;101707.44;5014122;28;20613;-54
2022/10/17 04:34:02;;;;;;;5.77;4.50;;;15.90;86.10;;;18.42;62.30;101706.03;5015240;28;20246;-56
2022/10/17 04:36:29;;;;;;;5.40;4.20;;;15.90;85.30;;;18.41;62.28;101703.53;5027454;28;20198;-56
2022/10/17 04:38:56;;;;;;;7.13;4.10;;;15.90;85.50;;;18.37;62.49;101696.97;5019063;28;20195;-54
2022/10/17 04:41:24;;;;;;;4.20;3.90;;;15.90;85.60;;;18.34;62.58;101705.38;5033732;28;20199;-57
2022/10/17 04:43:51;;;;;;;4.40;4.00;;;15.90;85.80;;;18.32;62.49;101710.91;5033657;28;20207;-55
2022/10/17 04:46:19;;;;;;;5.50;4.20;;;15.80;85.70;;;18.31;62.73;101706.59;5034090;28;20567;-57
2022/10/17 04:48:48;;;;;;;6.27;4.40;;;15.80;85.90;;;18.31;62.68;101698.59;5030617;28;20264;-56
2022/10/17 04:51:17;;;;;;;4.13;3.67;;;15.80;85.90;;;18.32;62.72;101708.25;5026284;28;20207;-55
2022/10/17 04:53:49;;;;;;;4.57;4.10;;;15.80;86.10;;;18.32;62.68;101705.59;5033741;28;20225;-57
2022/10/17 04:56:19;;;;;;;7.43;4.33;;;15.80;86.20;;;18.31;62.76;101698.59;5033299;28;20198;-56
2022/10/17 04:58:47;;;;;;;4.73;3.80;;;15.80;86.10;;;18.32;62.75;101700.25;5033465;28;20244;-57
2022/10/17 05:01:17;;;;;;;4.83;4.43;;;15.80;86.20;;;18.31;62.59;101711.91;5033447;28;20194;-56
2022/10/17 05:03:47;;;;;;;5.83;4.30;;;15.80;86.30;;;18.31;62.70;101713.75;5013787;28;20218;-57
2022/10/17 05:06:17;;;;;;;8.20;4.27;;;15.80;86.30;;;18.32;62.52;101699.41;5015122;28;20595;-57
2022/10/17 05:08:48;;;;;;;5.10;4.30;;;15.80;86.40;;;18.30;62.83;101696.13;5031885;28;20226;-56
2022/10/17 05:11:18;;;;;;;5.97;4.33;;;15.80;86.40;;;18.26;63.12;101703.69;5033088;28;20667;-55
2022/10/17 05:13:50;;;;;;;5.00;3.70;;;15.70;86.50;;;18.26;62.81;101690.38;5032090;28;20693;-57
2022/10/17 05:16:18;;;;;;;7.07;4.67;;;15.70;86.40;;;18.25;62.91;101704.75;5033510;28;20527;-56
2022/10/17 05:18:49;;;;;;;4.57;4.17;;;15.70;86.50;;;18.27;62.62;101702.69;5033230;28;20240;-57
2022/10/17 05:21:21;;;;;;;4.27;3.57;;;15.70;86.50;;;18.28;62.92;101693.66;5031412;28;20186;-56
2022/10/17 05:23:49;;;;;;;5.07;4.17;;;15.70;86.70;;;18.30;62.78;101696.13;5033402;28;20218;-56
2022/10/17 05:26:17;;;;;;;4.53;4.03;;;15.70;86.60;;;18.28;62.80;101693.66;5033703;28;20236;-53
2022/10/17 05:28:44;;;;;;;4.60;4.20;;;15.70;87.50;;;18.26;62.93;101690.38;5032496;28;20190;-53
2022/10/17 05:31:12;;;;;;;5.53;5.00;;;15.70;86.70;;;18.26;63.13;101690.38;5020375;28;20297;-54
2022/10/17 05:33:41;;;;;;;4.73;4.33;;;15.70;86.90;;;18.27;62.92;101686.69;5013422;28;20683;-55
2022/10/17 05:36:10;;;;;;;5.33;4.73;;;15.70;86.90;;;18.23;63.25;101680.13;5024714;28;20659;-54
2022/10/17 05:38:37;;;;;;;9.47;4.67;;;15.70;87.00;;;18.20;63.18;101675.19;5021818;28;20250;-57
2022/10/17 05:41:05;;;;;;;6.40;4.13;;;15.70;87.10;;;18.18;63.45;101674.59;5032466;28;20268;-56
2022/10/17 05:43:33;;;;;;;5.17;4.67;;;15.70;87.30;;;18.15;63.18;101682.97;5033007;28;20560;-57
2022/10/17 05:46:04;;;;;;;4.97;4.50;;;15.70;87.40;;;18.15;63.50;101677.66;5032871;28;20191;-56
2022/10/17 05:48:32;;;;;;;5.60;5.00;;;15.60;87.20;;;18.14;63.64;101686.66;5030945;28;20668;-54
2022/10/17 05:51:03;;;;;;;7.47;4.80;;;15.60;87.50;;;18.11;63.68;101681.75;5032096;28;20213;-57
2022/10/17 05:53:34;;;;;;;5.07;4.57;;;15.60;87.70;;;18.09;63.83;101679.25;5031501;28;20282;-54
2022/10/17 05:56:05;;;;;;;5.00;4.60;;;15.60;87.70;;;18.11;63.87;101687.06;5032434;28;20312;-56
2022/10/17 05:58:33;;;;;;;6.23;4.50;;;15.60;87.80;;;18.10;63.89;101686.25;5032975;28;20194;-54
2022/10/17 06:01:20;;;;;;;4.97;4.50;;;15.60;87.90;;;18.12;63.88;101680.69;5031500;28;20595;-55
2022/10/17 06:03:47;;;;;;;6.77;4.67;;;15.60;88.00;;;18.14;64.08;101676.00;5032516;28;20215;-53
2022/10/17 06:06:16;;;;;;;7.17;6.23;;;15.60;88.10;;;18.15;63.98;101672.31;5030904;28;20229;-53
2022/10/17 06:08:45;;;;;;;7.07;6.33;;;15.60;88.20;;;18.15;64.09;101661.66;5032643;28;20191;-55
2022/10/17 06:11:13;;;;;;;5.20;4.70;;;15.60;88.20;;;18.18;64.00;101663.94;5018405;28;20719;-57
2022/10/17 06:13:41;;;;;;;4.70;4.30;;;15.60;88.20;;;18.20;63.96;101659.22;5012411;28;20222;-56
2022/10/17 06:16:08;;;;;;;5.90;4.07;;;15.70;88.40;;;18.22;64.00;101660.66;5012687;28;20213;-55
2022/10/17 06:18:36;;;;;;;8.20;4.77;;;15.70;88.30;;;18.21;63.97;101664.31;5013215;28;20279;-55
2022/10/17 06:21:06;;;;;;;4.60;4.20;;;15.70;88.50;;;18.23;63.90;101670.28;5012437;28;20223;-55
2022/10/17 06:23:33;;;;;;;5.10;4.60;;;15.70;88.30;;;18.28;64.06;101673.16;5024395;28;20356;-54
2022/10/17 06:26:05;;;;;;;5.10;4.47;;;15.70;88.50;;;18.28;63.93;101691.00;5032304;28;20300;-57
2022/10/17 06:28:33;;;;;;;4.23;3.93;;;15.70;88.50;;;18.32;63.95;101689.59;5012941;28;20202;-55
2022/10/17 06:31:05;;;;;;;8.33;4.57;;;15.70;88.40;;;18.32;63.60;101694.91;5012305;28;20265;-55
2022/10/17 06:33:32;;;;;;;4.90;4.40;;;15.70;88.60;;;18.35;63.92;101683.81;5012756;28;20269;-56
2022/10/17 06:35:59;;;;;;;6.07;4.87;;;15.80;88.60;;;18.35;64.17;101694.50;5023387;28;20191;-54
2022/10/17 06:38:27;;;;;;;4.73;4.33;;;15.80;88.70;;;18.40;64.05;101697.38;5032427;28;20551;-57
2022/10/17 06:41:03;;;;;;;6.90;4.47;;;15.80;88.80;;;18.41;63.96;101699.03;5024659;28;20280;-55
2022/10/17 06:43:31;;;;;;;4.90;4.40;;;15.80;88.80;;;18.45;64.14;101708.25;5016818;28;20225;-56
2022/10/17 06:45:58;;;;;;;5.57;4.40;;;15.90;88.80;;;18.50;63.99;101703.19;5031998;28;20207;-55
2022/10/17 06:48:25;;;;;;;4.40;4.00;;;15.90;88.60;;;18.57;63.98;101704.00;5031520;28;20341;-53
2022/10/17 06:50:52;;;;;;;5.20;4.70;;;16.00;88.70;;;18.62;63.83;101701.56;5030108;28;20226;-56
2022/10/17 06:53:44;;;;;;;4.60;4.20;;;16.00;88.60;;;18.65;63.81;101721.66;5032418;28;20210;-56
2022/10/17 06:56:13;;;;;;;6.87;4.23;;;16.10;88.60;;;18.72;63.56;101720.66;5032483;28;20268;-56
2022/10/17 06:58:40;;;;;;;4.60;4.17;;;16.10;88.60;;;18.84;63.64;101729.69;5029059;28;20245;-57
2022/10/17 07:01:11;;;;;;;5.27;4.23;;;16.10;88.60;;;18.94;63.10;101722.09;5035808;28;20210;-56
2022/10/17 07:03:39;;;;;;;5.13;4.00;;;16.20;88.50;;;19.02;63.16;101728.28;5035919;28;20264;-54
2022/10/17 07:06:09;;;;;;;6.73;4.90;;;16.30;88.40;;;19.10;62.78;101722.72;5035425;28;20260;-54
2022/10/17 07:08:37;;;;;;;5.73;4.10;;;16.30;88.20;;;19.16;62.54;101728.03;5035836;28;20268;-56
2022/10/17 07:11:15;;;;;;;4.70;4.13;;;16.40;87.90;;;19.20;62.54;101731.13;5035205;28;20244;-58
2022/10/17 07:13:42;;;;;;;4.30;3.90;;;16.50;87.70;;;19.28;62.39;101738.94;5035443;28;20206;-56
2022/10/17 07:16:11;;;;;;;4.90;3.90;;;16.60;88.30;;;19.37;62.65;101740.41;5024682;28;20202;-57
2022/10/17 07:18:39;;;;;;;6.53;4.90;;;16.60;87.40;;;19.42;61.88;101746.75;5016554;28;20636;-53
2022/10/17 07:21:08;;;;;;;4.20;3.80;;;16.70;87.20;;;19.48;61.72;101750.44;5015971;28;20199;-54
2022/10/17 07:23:37;;;;;;;4.50;4.07;;;16.70;87.00;;;19.55;61.71;101743.22;5015891;28;20266;-55
2022/10/17 07:26:09;;;;;;;5.60;4.40;;;16.80;87.00;;;19.59;61.73;101739.09;5016015;28;20222;-55
2022/10/17 07:28:41;;;;;;;7.20;3.70;;;16.90;86.90;;;19.73;61.56;101738.03;5016364;28;20203;-54
2022/10/17 07:31:13;;;;;;;5.23;3.73;;;16.90;87.10;;;19.92;61.05;101747.84;5015027;28;20211;-56
2022/10/17 07:33:41;;;;;;;4.63;4.20;;;17.00;87.00;;;20.01;61.11;101759.16;5027499;28;20215;-57
2022/10/17 07:36:09;;;;;;;4.87;4.47;;;17.10;87.20;;;20.12;60.83;101751.28;5035372;28;20634;-54
2022/10/17 07:38:36;;;;;;;8.63;4.67;;;17.20;86.30;;;20.21;60.56;101751.84;5035320;28;20202;-57
2022/10/17 07:41:07;;;;;;;4.30;3.90;;;17.30;86.00;;;20.22;60.66;101749.00;5029123;28;20190;-55
2022/10/17 07:43:37;;;;;;;4.93;3.90;;;17.40;85.70;;;20.28;60.38;101767.91;5034837;28;20571;-55
2022/10/17 07:46:07;;;;;;;4.60;4.20;;;17.40;85.40;;;20.27;60.32;101766.25;5034675;28;20219;-56
2022/10/17 07:48:34;;;;;;;5.27;4.07;;;17.50;85.40;;;20.26;60.84;101754.75;5033319;28;20604;-57
2022/10/17 07:51:03;;;;;;;4.23;3.80;;;17.50;85.30;;;20.34;60.55;101751.00;5042202;28;20191;-58
2022/10/17 07:53:31;;;;;;;9.50;4.13;;;17.60;85.40;;;20.41;60.44;101746.44;5035253;28;20606;-57
2022/10/17 07:55:58;;;;;;;5.00;3.97;;;17.60;85.30;;;20.43;59.89;101744.38;5035089;28;20252;-57
2022/10/17 07:58:27;;;;;;;4.73;4.30;;;17.70;85.20;;;20.42;60.31;101743.53;5034551;28;20198;-54
2022/10/17 08:00:59;;;;;;;4.40;3.90;;;17.70;85.10;;;20.50;59.94;101739.81;5034207;28;20206;-54
2022/10/17 08:03:27;;;;;;;4.87;4.37;;;17.80;85.10;;;20.58;59.89;101742.22;5034724;28;20692;-56
2022/10/17 08:05:57;;;;;;;6.80;4.77;;;17.80;85.10;;;20.58;59.54;101736.88;5025330;28;20578;-55
2022/10/17 08:08:25;;;;;;;4.93;4.53;;;17.80;84.80;;;20.63;60.25;101747.75;5022780;28;20575;-54
2022/10/17 08:10:53;;;;;;;5.43;4.43;;;17.90;84.90;;;20.73;60.11;101753.44;5014806;28;20533;-54
2022/10/17 08:13:21;;;;;;;4.37;4.03;;;17.90;84.90;;;20.80;59.43;101748.88;5015307;28;20350;-53
2022/10/17 08:15:49;;;;;;;6.87;4.70;;;18.00;84.80;;;20.84;59.66;101752.75;5014516;28;20558;-54
2022/10/17 08:18:17;;;;;;;6.83;3.97;;;18.00;84.60;;;20.88;59.71;101749.44;5014498;28;20777;-55
2022/10/17 08:20:47;;;;;;;4.73;4.33;;;18.10;84.50;;;20.91;59.11;101754.34;5016021;28;20191;-57
2022/10/17 08:23:14;;;;;;;8.23;4.10;;;18.20;84.40;;;20.99;59.39;101739.84;5013081;28;20223;-56
2022/10/17 08:25:42;;;;;;;4.33;3.93;;;18.20;84.40;;;21.10;58.94;101736.53;5015871;28;20254;-56
2022/10/17 08:28:09;;;;;;;5.37;4.73;;;18.30;84.50;;;21.25;59.05;101734.31;5014203;28;20214;-56
2022/10/17 08:30:36;;;;;;;4.90;4.40;;;18.40;84.60;;;21.33;58.57;101728.69;5014209;28;20691;-57
2022/10/17 08:33:03;;;;;;;5.03;4.23;;;18.50;84.30;;;21.48;58.54;101726.47;5013900;28;20211;-56
2022/10/17 08:35:31;;;;;;;6.53;3.63;;;18.60;84.10;;;21.62;58.03;101731.69;5021648;28;20194;-57
2022/10/17 08:38:00;;;;;;;4.23;3.93;;;18.70;84.70;;;21.74;58.07;101738.78;5025481;28;20198;-57
2022/10/17 08:40:32;;;;;;;5.07;4.30;;;18.80;83.80;;;21.88;58.20;101737.59;5032687;28;20210;-57
2022/10/17 08:43:30;;;;;;;4.93;3.53;;;18.90;83.50;;;21.98;57.54;101743.25;5015515;28;20249;-56
2022/10/17 08:46:06;;;;;;;7.30;4.40;;;19.00;83.30;;;22.25;57.41;101733.81;5014686;28;20557;-55
2022/10/17 08:48:42;;;;;;;4.30;3.90;;;19.20;83.00;;;22.49;56.47;101740.09;5014452;28;20719;-57
2022/10/17 08:51:18;;;;;;;4.43;3.47;;;19.40;82.80;;;22.65;56.20;101742.19;5026383;28;20226;-57
2022/10/17 08:53:53;;;;;;;8.63;4.07;;;19.50;82.10;;;22.74;55.97;101734.59;5022870;28;20556;-54
2022/10/17 08:56:24;;;;;;;4.80;3.30;;;19.70;81.30;;;22.84;55.68;101740.25;5014386;28;20237;-55
2022/10/17 08:59:13;;;;;;;3.73;3.43;;;19.80;80.80;;;22.86;55.44;101733.59;5014091;28;20188;-58
2022/10/17 09:01:49;;;;;;;9.30;4.30;;;20.00;80.40;;;22.84;55.63;101738.34;5018385;28;20575;-57
2022/10/17 09:04:44;;;;;;;5.60;4.40;;;20.00;80.00;;;22.80;55.63;101739.88;5033501;28;20190;-57
2022/10/17 09:07:21;;;;;;;9.73;4.00;;;20.10;80.10;;;22.89;55.61;101749.22;5032100;28;20199;-56
2022/10/17 09:10:02;;;;;;;5.90;4.27;;;20.10;80.10;;;22.98;55.78;101747.03;5024147;28;20202;-54
2022/10/17 09:12:42;;;;;;;10.77;3.83;;;20.30;80.20;;;23.15;55.41;101742.63;5012939;28;20223;-55
2022/10/17 09:15:46;;;;;;;12.03;4.07;;;20.40;80.00;;;23.27;55.24;101746.09;5013986;28;20245;-57
2022/10/17 09:18:22;;;;;;;8.77;4.13;;;20.50;79.50;;;23.37;54.72;101741.00;5011505;28;20198;-54
2022/10/17 09:20:56;;;;;;;7.83;4.20;;;20.60;79.10;;;23.37;55.10;101734.81;5032413;28;20205;-53
2022/10/17 09:23:30;;;;;;;8.40;3.93;;;20.70;78.90;;;23.37;55.20;101730.25;5032668;28;20217;-55
2022/10/17 09:26:01;;;;;;;7.57;4.23;;;20.70;78.90;;;23.43;54.86;101729.34;5031598;28;20214;-55
2022/10/17 09:28:33;;;;;;;6.23;3.97;;;20.80;79.00;;;23.58;54.96;101744.97;5033165;28;20207;-55
2022/10/17 09:31:05;;;;;;;7.23;4.03;;;20.80;79.20;;;23.76;54.97;101742.13;5032225;28;20205;-57
2022/10/17 09:33:40;;;;;;;7.77;4.00;;;20.90;79.10;;;23.92;54.16;101743.25;5033059;28;20588;-57
2022/10/17 09:36:24;;;;;;;6.40;3.63;;;21.00;78.70;;;24.10;53.95;101741.25;5029344;28;20195;-56
2022/10/17 09:38:55;;;;;;;6.27;4.17;;;21.20;78.40;;;24.28;53.26;101742.13;5025280;28;20230;-54
2022/10/17 09:41:32;;;;;;;9.13;4.00;;;21.30;78.10;;;24.33;53.06;101740.34;5031280;28;20198;-56
2022/10/17 09:44:24;;;;;;;6.97;3.67;;;21.40;77.20;;;24.35;53.26;101732.03;5032545;28;20600;-54
2022/10/17 09:47:07;;;;;;;7.37;4.00;;;21.60;77.00;;;24.44;52.83;101734.09;5031474;28;20214;-54
2022/10/17 09:49:38;;;;;;;4.70;3.90;;;21.70;76.90;;;24.62;52.37;101738.47;5032495;28;20198;-55
2022/10/17 09:52:17;;;;;;;5.90;3.90;;;21.70;76.40;;;24.68;52.29;101748.25;5027775;28;20237;-53
2022/10/17 09:54:48;;;;;;;4.00;3.47;;;21.80;76.10;;;24.82;52.40;101752.28;5012656;28;20199;-56
2022/10/17 09:57:20;;;;;;;4.60;3.40;;;22.00;75.90;;;24.83;51.88;101752.06;5012625;28;20311;-53
2022/10/17 09:59:58;;;;;;;3.90;3.60;;;22.00;75.40;;;24.88;51.82;101754.03;5024373;28;20256;-56
2022/10/17 10:02:28;;;;;;;5.60;3.87;;;22.10;75.30;;;24.86;51.60;101761.53;5032005;28;20741;-54
2022/10/17 10:04:59;;;;;;;6.33;3.67;;;22.20;75.10;;;24.89;52.03;101771.81;5032036;28;20290;-57
2022/10/17 10:07:36;;;;;;;5.83;3.23;;;22.20;74.80;;;24.98;51.85;101769.53;5031784;28;20259;-56
2022/10/17 10:10:13;;;;;;;6.10;3.70;;;22.20;74.80;;;24.92;51.13;101768.63;5032189;28;20195;-56
2022/10/17 10:13:02;;;;;;;7.03;3.40;;;22.20;74.30;;;24.83;51.31;101772.78;5029961;28;20641;-54
2022/10/17 10:15:34;;;;;;;6.43;3.60;;;22.30;74.50;;;24.81;52.03;101766.84;5026212;28;20187;-54
2022/10/17 10:18:02;;;;;;;5.43;3.30;;;22.20;74.30;;;24.81;52.18;101767.66;5012916;28;20290;-54
2022/10/17 10:20:35;;;;;;;3.90;3.20;;;22.20;74.50;;;24.79;51.76;101771.66;5012606;28;20199;-53
2022/10/17 10:23:16;;;;;;;5.97;3.77;;;22.20;74.40;;;24.74;52.49;101766.97;5013078;28;20226;-55
2022/10/17 10:25:55;;;;;;;3.93;3.50;;;22.20;74.50;;;24.70;52.68;101779.28;5012700;28;20230;-57
2022/10/17 10:28:28;;;;;;;4.50;3.80;;;22.20;74.70;;;24.65;52.11;101787.25;5013233;28;20190;-55
2022/10/17 10:30:59;;;;;;;4.90;3.80;;;22.20;74.70;;;24.66;52.70;101788.06;5010285;28;20226;-55
2022/10/17 10:33:29;;;;;;;3.70;3.37;;;22.10;74.70;;;24.71;52.57;101788.16;5014153;28;20573;-56